Time;durP1;ratioP1;P1;durP2;ratioP2;P2;SDS_P1;SDS_P2;PMS_P1;PMS_P2;Temp;Humidity;BMP_temperature;BMP_pressure;BME280_temperature;BME280_humidity;BME280_pressure;Samples;Min_cycle;Max_cycle;Signal;HPM_P1;HPM_P2
2023/03/04 00:01:17;;;;;;;5.88;3.33;;;;;;;;;;4899077;29;20108;-78
2023/03/04 00:03:43;;;;;;;3.55;3.00;;;;;;;;;;4897295;29;20094;-77
2023/03/04 00:06:09;;;;;;;5.38;3.50;;;;;;;;;;4894503;29;20182;-77
2023/03/04 00:08:36;;;;;;;4.95;3.10;;;;;;;;;;4891450;29;20413;-78
2023/03/04 00:11:03;;;;;;;3.92;2.95;;;;;;;;;;4887178;29;20452;-77
2023/03/04 00:13:29;;;;;;;7.30;3.25;;;;;;;;;;4897395;29;20040;-76
2023/03/04 00:15:55;;;;;;;3.72;3.30;;;;;;;;;;4893359;29;20088;-76
2023/03/04 00:18:21;;;;;;;4.63;4.22;;;;;;;;;;4897476;29;20399;-76
2023/03/04 00:20:48;;;;;;;4.28;3.33;;;;;;;;;;4880418;29;20025;-76
2023/03/04 00:23:14;;;;;;;3.83;3.35;;;;;;;;;;4882777;29;20476;-77
2023/03/04 00:25:41;;;;;;;4.93;3.53;;;;;;;;;;4896604;29;20029;-77
2023/03/04 00:28:07;;;;;;;5.55;3.90;;;;;;;;;;4897249;29;20441;-77
2023/03/04 00:30:33;;;;;;;4.00;3.60;;;;;;;;;;4902247;29;20041;-77
2023/03/04 00:32:59;;;;;;;4.05;3.28;;;;;;;;;;4896803;29;20033;-77
2023/03/04 00:35:25;;;;;;;6.97;3.90;;;;;;;;;;4901279;29;20412;-78
2023/03/04 00:37:51;;;;;;;4.28;3.70;;;;;;;;;;4898150;29;20038;-76
2023/03/04 00:40:17;;;;;;;4.18;3.42;;;;;;;;;;4903181;29;20016;-78
2023/03/04 00:42:43;;;;;;;5.38;3.58;;;;;;;;;;4896805;29;20029;-78
2023/03/04 00:45:10;;;;;;;6.53;3.35;;;;;;;;;;4896782;29;20116;-78
2023/03/04 00:47:36;;;;;;;4.95;3.67;;;;;;;;;;4892225;29;20028;-79
2023/03/04 00:50:02;;;;;;;5.15;3.75;;;;;;;;;;4875794;29;20033;-78
2023/03/04 00:52:28;;;;;;;4.13;3.22;;;;;;;;;;4887278;29;20124;-77
2023/03/04 00:54:54;;;;;;;5.55;3.70;;;;;;;;;;4892582;29;20029;-77
2023/03/04 00:57:20;;;;;;;3.67;3.33;;;;;;;;;;4894742;29;20036;-76
2023/03/04 00:59:46;;;;;;;4.50;2.78;;;;;;;;;;4887319;29;20119;-78
2023/03/04 01:02:13;;;;;;;5.43;3.95;;;;;;;;;;4890826;29;20481;-77
2023/03/04 01:04:40;;;;;;;4.07;3.15;;;;;;;;;;4890397;29;20032;-77
2023/03/04 01:07:07;;;;;;;6.88;3.50;;;;;;;;;;4893578;29;20079;-77
2023/03/04 01:09:33;;;;;;;5.72;3.85;;;;;;;;;;4893409;29;20036;-78
2023/03/04 01:11:59;;;;;;;4.30;3.30;;;;;;;;;;4893865;29;20040;-77
2023/03/04 01:14:25;;;;;;;5.10;3.47;;;;;;;;;;4893557;29;20036;-77
2023/03/04 01:16:51;;;;;;;4.28;3.45;;;;;;;;;;4890680;29;20115;-77
2023/03/04 01:19:17;;;;;;;5.30;3.20;;;;;;;;;;4892426;29;20036;-77
2023/03/04 01:21:43;;;;;;;4.93;3.47;;;;;;;;;;4892993;29;20480;-77
2023/03/04 01:24:10;;;;;;;5.97;3.78;;;;;;;;;;4903393;29;20115;-78
2023/03/04 01:26:36;;;;;;;4.93;3.58;;;;;;;;;;4897707;29;20093;-76
2023/03/04 01:29:02;;;;;;;6.15;4.10;;;;;;;;;;4894601;29;20060;-76
2023/03/04 01:31:28;;;;;;;7.18;3.50;;;;;;;;;;4888734;29;20394;-77
2023/03/04 01:33:54;;;;;;;5.38;3.75;;;;;;;;;;4891631;29;20037;-77
2023/03/04 01:36:20;;;;;;;6.20;3.40;;;;;;;;;;4895096;29;20027;-77
2023/03/04 01:38:47;;;;;;;4.85;3.58;;;;;;;;;;4894678;29;20055;-76
2023/03/04 01:41:14;;;;;;;5.63;3.85;;;;;;;;;;4893520;29;20028;-77
2023/03/04 01:43:40;;;;;;;3.90;3.42;;;;;;;;;;4890511;29;20494;-78
2023/03/04 01:46:07;;;;;;;4.47;3.50;;;;;;;;;;4895288;29;20048;-77
2023/03/04 01:48:35;;;;;;;7.28;3.42;;;;;;;;;;4899675;29;20032;-77
2023/03/04 01:51:02;;;;;;;5.00;3.13;;;;;;;;;;4895258;29;20028;-77
2023/03/04 01:53:29;;;;;;;10.95;3.30;;;;;;;;;;4897791;29;20619;-78
2023/03/04 01:55:57;;;;;;;6.65;3.10;;;;;;;;;;4895612;29;20037;-77
2023/03/04 01:58:27;;;;;;;4.45;3.30;;;;;;;;;;4892947;29;20472;-77
2023/03/04 02:00:54;;;;;;;5.50;3.40;;;;;;;;;;4895984;29;20025;-78
2023/03/04 02:03:20;;;;;;;3.97;3.35;;;;;;;;;;4890976;29;20025;-77
2023/03/04 02:05:48;;;;;;;4.75;4.07;;;;;;;;;;4891727;29;20119;-78
2023/03/04 02:08:15;;;;;;;5.25;4.15;;;;;;;;;;4895488;29;20032;-77
2023/03/04 02:10:42;;;;;;;5.03;3.20;;;;;;;;;;4878880;29;20089;-77
2023/03/04 02:13:08;;;;;;;4.18;3.13;;;;;;;;;;4893698;29;20092;-77
2023/03/04 02:15:34;;;;;;;6.50;3.10;;;;;;;;;;4895943;29;20024;-77
2023/03/04 02:18:13;;;;;;;5.85;3.70;;;;;;;;;;4894091;29;20052;-77
2023/03/04 02:20:45;;;;;;;6.25;3.75;;;;;;;;;;4894900;29;20097;-77
2023/03/04 02:23:22;;;;;;;3.88;3.42;;;;;;;;;;4888192;29;20025;-79
2023/03/04 02:26:12;;;;;;;6.00;3.35;;;;;;;;;;4895308;29;20028;-77
2023/03/04 02:28:38;;;;;;;5.75;3.30;;;;;;;;;;4895848;29;20039;-77
2023/03/04 02:31:04;;;;;;;5.68;3.03;;;;;;;;;;4900475;29;20036;-77
2023/03/04 02:33:32;;;;;;;3.90;3.50;;;;;;;;;;4893335;29;20032;-77
2023/03/04 02:35:58;;;;;;;4.10;3.03;;;;;;;;;;4879122;29;20028;-77
2023/03/04 02:38:24;;;;;;;4.85;3.00;;;;;;;;;;4895918;29;20044;-77
2023/03/04 02:40:51;;;;;;;6.50;3.20;;;;;;;;;;4901548;29;20028;-78
2023/03/04 02:43:17;;;;;;;7.05;3.45;;;;;;;;;;4892969;29;20039;-76
2023/03/04 02:45:45;;;;;;;3.75;2.92;;;;;;;;;;4895636;29;20092;-77
2023/03/04 02:48:11;;;;;;;5.05;3.40;;;;;;;;;;4884672;29;20025;-77
2023/03/04 02:50:42;;;;;;;4.88;3.58;;;;;;;;;;4900637;29;20506;-77
2023/03/04 02:53:08;;;;;;;5.88;2.97;;;;;;;;;;4904315;29;20623;-77
2023/03/04 02:55:34;;;;;;;3.90;3.00;;;;;;;;;;4896461;29;20040;-76
2023/03/04 02:58:00;;;;;;;5.25;3.83;;;;;;;;;;4894897;29;20032;-78
2023/03/04 03:00:27;;;;;;;6.20;3.08;;;;;;;;;;4896725;29;20148;-77
2023/03/04 03:02:55;;;;;;;4.80;3.60;;;;;;;;;;4896318;29;20048;-78
2023/03/04 03:05:22;;;;;;;5.78;3.03;;;;;;;;;;4886429;29;20029;-78
2023/03/04 03:07:48;;;;;;;4.43;3.38;;;;;;;;;;4878865;29;20029;-77
2023/03/04 03:10:14;;;;;;;7.30;3.13;;;;;;;;;;4894613;29;20029;-77
2023/03/04 03:12:40;;;;;;;5.80;3.38;;;;;;;;;;4902811;29;20601;-77
2023/03/04 03:15:07;;;;;;;3.88;3.10;;;;;;;;;;4884225;29;20404;-77
2023/03/04 03:17:33;;;;;;;4.22;3.50;;;;;;;;;;4894525;29;20395;-77
2023/03/04 03:19:59;;;;;;;9.35;4.32;;;;;;;;;;4886189;29;20514;-77
2023/03/04 03:22:25;;;;;;;6.93;3.78;;;;;;;;;;4895250;29;20028;-76
2023/03/04 03:24:51;;;;;;;6.70;3.50;;;;;;;;;;4892546;29;20448;-78
2023/03/04 03:27:17;;;;;;;3.95;3.55;;;;;;;;;;4894377;29;20028;-77
2023/03/04 03:29:44;;;;;;;5.53;3.15;;;;;;;;;;4900140;29;20079;-76
2023/03/04 03:32:10;;;;;;;4.20;3.33;;;;;;;;;;4894917;29;20039;-78
2023/03/04 03:34:36;;;;;;;8.63;3.80;;;;;;;;;;4892198;29;20060;-77
2023/03/04 03:37:02;;;;;;;4.40;3.10;;;;;;;;;;4899668;29;20032;-77
2023/03/04 03:39:28;;;;;;;3.72;3.30;;;;;;;;;;4890893;29;20039;-77
2023/03/04 03:41:54;;;;;;;5.95;3.75;;;;;;;;;;4900051;29;20505;-77
2023/03/04 03:44:20;;;;;;;5.70;3.50;;;;;;;;;;4893703;29;20044;-75
2023/03/04 03:46:46;;;;;;;5.10;3.20;;;;;;;;;;4890463;29;20029;-78
2023/03/04 03:49:12;;;;;;;7.18;3.53;;;;;;;;;;4898335;29;20372;-78
2023/03/04 03:51:39;;;;;;;4.38;3.35;;;;;;;;;;4882634;29;20052;-78
2023/03/04 03:54:05;;;;;;;3.72;3.33;;;;;;;;;;4899572;29;20469;-77
2023/03/04 03:56:31;;;;;;;3.97;3.55;;;;;;;;;;4890161;29;20080;-78
2023/03/04 03:58:57;;;;;;;7.53;3.88;;;;;;;;;;4897867;29;20119;-77
2023/03/04 04:01:23;;;;;;;10.75;4.05;;;;;;;;;;4890635;29;20028;-76
2023/03/04 04:03:49;;;;;;;4.65;3.63;;;;;;;;;;4893364;29;20064;-76
2023/03/04 04:06:15;;;;;;;4.70;3.35;;;;;;;;;;4891854;29;20043;-76
2023/03/04 04:08:41;;;;;;;6.30;3.78;;;;;;;;;;4894695;29;20105;-76
2023/03/04 04:11:11;;;;;;;5.65;3.70;;;;;;;;;;4892794;29;20088;-77
2023/03/04 04:13:37;;;;;;;6.07;3.33;;;;;;;;;;4893617;29;20131;-78
2023/03/04 04:16:03;;;;;;;5.72;3.25;;;;;;;;;;4894134;29;20037;-76
2023/03/04 04:18:29;;;;;;;4.28;3.40;;;;;;;;;;4891131;29;20499;-76
2023/03/04 04:20:55;;;;;;;5.30;3.90;;;;;;;;;;4887031;29;20040;-77
2023/03/04 04:23:21;;;;;;;4.80;3.40;;;;;;;;;;4885684;29;20112;-76
2023/03/04 04:25:47;;;;;;;3.50;3.20;;;;;;;;;;4894014;29;20039;-78
2023/03/04 04:28:13;;;;;;;6.65;4.07;;;;;;;;;;4883697;29;20420;-77
2023/03/04 04:30:40;;;;;;;6.65;3.42;;;;;;;;;;4888782;29;20027;-78
2023/03/04 04:33:06;;;;;;;4.10;3.50;;;;;;;;;;4893074;29;20029;-77
2023/03/04 04:35:33;;;;;;;5.80;4.25;;;;;;;;;;4893851;29;20039;-77
2023/03/04 04:37:59;;;;;;;4.63;3.30;;;;;;;;;;4884086;29;20032;-76
2023/03/04 04:40:25;;;;;;;4.18;3.78;;;;;;;;;;4892126;29;20064;-78
2023/03/04 04:42:51;;;;;;;6.90;3.58;;;;;;;;;;4895572;29;20099;-77
2023/03/04 04:45:17;;;;;;;5.78;4.43;;;;;;;;;;4892044;29;20032;-77
2023/03/04 04:47:43;;;;;;;4.65;3.70;;;;;;;;;;4891092;29;20483;-77
2023/03/04 04:50:10;;;;;;;5.05;3.70;;;;;;;;;;4887945;29;20043;-77
2023/03/04 04:52:36;;;;;;;4.07;3.53;;;;;;;;;;4894573;29;20131;-76
2023/03/04 04:55:02;;;;;;;7.53;3.65;;;;;;;;;;4879340;29;20056;-77
2023/03/04 04:57:28;;;;;;;5.50;4.05;;;;;;;;;;4893301;29;20663;-76
2023/03/04 04:59:55;;;;;;;5.78;3.58;;;;;;;;;;4877939;29;20032;-77
2023/03/04 05:02:21;;;;;;;5.65;3.78;;;;;;;;;;4898184;29;20040;-77
2023/03/04 05:04:47;;;;;;;5.07;3.90;;;;;;;;;;4892541;29;20031;-77
2023/03/04 05:07:13;;;;;;;4.32;3.80;;;;;;;;;;4886847;29;20061;-77
2023/03/04 05:09:39;;;;;;;5.43;3.75;;;;;;;;;;4889272;29;20033;-77
2023/03/04 05:12:05;;;;;;;5.88;3.65;;;;;;;;;;4893583;29;20039;-77
2023/03/04 05:14:31;;;;;;;4.68;3.60;;;;;;;;;;4889324;29;20036;-76
2023/03/04 05:16:57;;;;;;;5.30;4.15;;;;;;;;;;4900531;29;20052;-77
2023/03/04 05:19:23;;;;;;;5.43;4.60;;;;;;;;;;4890960;29;20033;-77
2023/03/04 05:21:49;;;;;;;7.95;3.58;;;;;;;;;;4894082;29;20421;-77
2023/03/04 05:24:15;;;;;;;4.43;3.47;;;;;;;;;;4894977;29;20040;-76
2023/03/04 05:26:42;;;;;;;5.07;3.47;;;;;;;;;;4892297;29;20020;-77
2023/03/04 05:29:09;;;;;;;5.47;3.35;;;;;;;;;;4896375;29;20480;-77
2023/03/04 05:31:35;;;;;;;5.47;3.45;;;;;;;;;;4887482;29;20123;-76
2023/03/04 05:34:01;;;;;;;3.90;3.50;;;;;;;;;;4892823;29;20043;-76
2023/03/04 05:36:27;;;;;;;4.88;3.58;;;;;;;;;;4891720;29;20040;-77
2023/03/04 05:38:53;;;;;;;5.57;4.22;;;;;;;;;;4884057;29;20022;-76
2023/03/04 05:41:21;;;;;;;5.75;3.53;;;;;;;;;;4897233;29;20036;-79
2023/03/04 05:43:47;;;;;;;5.50;4.03;;;;;;;;;;4888504;29;20076;-77
2023/03/04 05:46:14;;;;;;;6.32;3.60;;;;;;;;;;4892720;29;20104;-77
2023/03/04 05:48:41;;;;;;;5.15;3.40;;;;;;;;;;4881099;29;20037;-78
2023/03/04 05:51:07;;;;;;;3.85;3.15;;;;;;;;;;4892699;29;20415;-77
2023/03/04 05:53:35;;;;;;;6.22;3.60;;;;;;;;;;4889162;29;20047;-76
2023/03/04 05:56:06;;;;;;;4.60;3.45;;;;;;;;;;4894197;29;20031;-77
2023/03/04 05:58:32;;;;;;;4.38;3.75;;;;;;;;;;4890382;29;20040;-76
2023/03/04 06:01:02;;;;;;;3.53;3.22;;;;;;;;;;4891525;29;20392;-77
2023/03/04 06:03:28;;;;;;;6.70;3.67;;;;;;;;;;4881876;29;20039;-77
2023/03/04 06:05:54;;;;;;;6.70;3.75;;;;;;;;;;4891416;29;20025;-77
2023/03/04 06:08:20;;;;;;;5.45;3.33;;;;;;;;;;4892019;29;20539;-76
2023/03/04 06:10:46;;;;;;;5.13;3.70;;;;;;;;;;4891521;29;20032;-77
2023/03/04 06:13:13;;;;;;;3.85;3.17;;;;;;;;;;4879922;29;20531;-76
2023/03/04 06:15:39;;;;;;;4.32;3.70;;;;;;;;;;4887189;29;20036;-77
2023/03/04 06:18:06;;;;;;;4.60;3.55;;;;;;;;;;4894942;29;20185;-76
2023/03/04 06:20:32;;;;;;;5.28;4.00;;;;;;;;;;4886602;29;20059;-78
2023/03/04 06:22:58;;;;;;;4.25;3.40;;;;;;;;;;4892901;29;20027;-77
2023/03/04 06:25:25;;;;;;;6.47;3.63;;;;;;;;;;4894512;29;20045;-77
2023/03/04 06:27:51;;;;;;;4.68;4.28;;;;;;;;;;4887715;29;20024;-77
2023/03/04 06:30:18;;;;;;;4.13;3.20;;;;;;;;;;4893404;29;20032;-77
2023/03/04 06:32:44;;;;;;;4.80;4.05;;;;;;;;;;4893534;29;20511;-77
2023/03/04 06:35:11;;;;;;;5.95;3.95;;;;;;;;;;4897494;29;20040;-76
2023/03/04 06:37:38;;;;;;;4.82;3.50;;;;;;;;;;4889929;29;20420;-77
2023/03/04 06:40:04;;;;;;;6.75;3.83;;;;;;;;;;4889525;29;20025;-78
2023/03/04 06:42:30;;;;;;;5.88;4.25;;;;;;;;;;4891158;29;20028;-77
2023/03/04 06:44:56;;;;;;;5.63;3.88;;;;;;;;;;4892171;29;20407;-77
2023/03/04 06:47:23;;;;;;;5.30;3.78;;;;;;;;;;4895528;29;20399;-78
2023/03/04 06:49:49;;;;;;;4.82;3.70;;;;;;;;;;4886856;29;20455;-76
2023/03/04 06:52:15;;;;;;;5.82;3.80;;;;;;;;;;4896517;29;20048;-77
2023/03/04 06:54:41;;;;;;;5.00;3.75;;;;;;;;;;4900635;29;20096;-77
2023/03/04 06:57:07;;;;;;;4.50;3.67;;;;;;;;;;4898040;29;20060;-78
2023/03/04 06:59:34;;;;;;;5.65;4.00;;;;;;;;;;4904484;29;20093;-78
2023/03/04 07:02:00;;;;;;;4.50;3.85;;;;;;;;;;4903461;29;20060;-78
2023/03/04 07:04:26;;;;;;;4.53;4.00;;;;;;;;;;4889358;29;20502;-77
2023/03/04 07:06:52;;;;;;;5.35;3.60;;;;;;;;;;4894274;29;20112;-77
2023/03/04 07:09:18;;;;;;;7.63;4.18;;;;;;;;;;4889900;29;20040;-77
2023/03/04 07:11:45;;;;;;;5.18;3.88;;;;;;;;;;4893938;29;20033;-78
2023/03/04 07:14:11;;;;;;;4.18;3.72;;;;;;;;;;4876214;29;20571;-76
2023/03/04 07:16:37;;;;;;;7.28;4.45;;;;;;;;;;4892137;29;20036;-77
2023/03/04 07:19:03;;;;;;;8.68;5.00;;;;;;;;;;4892518;29;20507;-76
2023/03/04 07:21:29;;;;;;;7.53;4.70;;;;;;;;;;4888886;29;20720;-77
2023/03/04 07:23:55;;;;;;;5.78;4.65;;;;;;;;;;4894020;29;20100;-78
2023/03/04 07:26:22;;;;;;;5.45;4.93;;;;;;;;;;4881513;29;20065;-78
2023/03/04 07:28:48;;;;;;;7.35;5.03;;;;;;;;;;4889878;29;20044;-76
2023/03/04 07:31:24;;;;;;;6.95;5.00;;;;;;;;;;4893999;29;20092;-77
2023/03/04 07:33:50;;;;;;;5.18;4.05;;;;;;;;;;4889866;29;20028;-76
2023/03/04 07:36:20;;;;;;;7.88;5.07;;;;;;;;;;4891470;29;20055;-77
2023/03/04 07:38:47;;;;;;;7.22;4.80;;;;;;;;;;4891829;29;20103;-78
2023/03/04 07:41:13;;;;;;;5.65;4.70;;;;;;;;;;4895177;29;20040;-77
2023/03/04 07:43:39;;;;;;;9.70;5.35;;;;;;;;;;4876800;29;20607;-77
2023/03/04 07:46:06;;;;;;;6.78;5.28;;;;;;;;;;4894649;29;20041;-76
2023/03/04 07:48:32;;;;;;;6.25;5.00;;;;;;;;;;4889112;29;20033;-76
2023/03/04 07:51:09;;;;;;;6.65;4.45;;;;;;;;;;4896173;29;20027;-78
2023/03/04 07:53:36;;;;;;;9.40;5.45;;;;;;;;;;4892467;29;20535;-78
2023/03/04 07:56:03;;;;;;;7.60;5.50;;;;;;;;;;4887888;29;20036;-77
2023/03/04 07:58:29;;;;;;;7.25;5.60;;;;;;;;;;4889991;29;20048;-77
2023/03/04 08:00:55;;;;;;;7.88;5.45;;;;;;;;;;4891765;29;20033;-78
2023/03/04 08:03:21;;;;;;;7.45;5.55;;;;;;;;;;4888337;29;20480;-77
2023/03/04 08:05:47;;;;;;;7.13;4.97;;;;;;;;;;4892537;29;20052;-76
2023/03/04 08:08:13;;;;;;;9.45;5.63;;;;;;;;;;4893916;29;20036;-78
2023/03/04 08:10:40;;;;;;;7.68;5.55;;;;;;;;;;4890036;29;20044;-78
2023/03/04 08:13:06;;;;;;;9.70;5.93;;;;;;;;;;4892840;29;20135;-79
2023/03/04 08:15:34;;;;;;;8.25;6.63;;;;;;;;;;4890279;29;20029;-76
2023/03/04 08:18:00;;;;;;;8.38;5.85;;;;;;;;;;4885736;29;20036;-77
2023/03/04 08:20:26;;;;;;;8.05;5.40;;;;;;;;;;4893822;29;20551;-77
2023/03/04 08:22:53;;;;;;;7.38;6.03;;;;;;;;;;4893327;29;20036;-77
2023/03/04 08:25:19;;;;;;;9.05;6.68;;;;;;;;;;4896566;29;20033;-76
2023/03/04 08:27:45;;;;;;;8.63;5.50;;;;;;;;;;4891800;29;20033;-77
2023/03/04 08:30:12;;;;;;;7.93;6.25;;;;;;;;;;4892118;29;20088;-78
2023/03/04 08:32:38;;;;;;;9.05;5.80;;;;;;;;;;4891325;29;20033;-79
2023/03/04 08:35:04;;;;;;;7.35;5.47;;;;;;;;;;4893538;29;20499;-78
2023/03/04 08:37:30;;;;;;;8.32;6.72;;;;;;;;;;4893251;29;20068;-77
2023/03/04 08:39:56;;;;;;;8.40;7.43;;;;;;;;;;4893206;29;20080;-78
2023/03/04 08:42:23;;;;;;;7.30;6.20;;;;;;;;;;4897121;29;20032;-77
2023/03/04 08:44:49;;;;;;;9.13;6.32;;;;;;;;;;4886702;29;20036;-78
2023/03/04 08:47:15;;;;;;;10.85;6.80;;;;;;;;;;4892251;29;20032;-77
2023/03/04 08:49:41;;;;;;;9.02;7.03;;;;;;;;;;4874815;29;20035;-79
2023/03/04 08:52:08;;;;;;;10.88;7.10;;;;;;;;;;4884799;29;20127;-76
2023/03/04 08:54:34;;;;;;;10.52;7.22;;;;;;;;;;4888482;29;20060;-77
2023/03/04 08:57:00;;;;;;;12.38;7.68;;;;;;;;;;4893005;29;20392;-77
2023/03/04 08:59:26;;;;;;;10.25;7.60;;;;;;;;;;4877098;29;20021;-77
2023/03/04 09:01:52;;;;;;;9.98;7.75;;;;;;;;;;4878492;29;20025;-78
2023/03/04 09:04:18;;;;;;;10.50;7.65;;;;;;;;;;4888196;29;20428;-77
2023/03/04 09:06:44;;;;;;;13.55;8.68;;;;;;;;;;4892825;29;20025;-77
2023/03/04 09:09:10;;;;;;;10.65;8.13;;;;;;;;;;4886207;29;20384;-77
2023/03/04 09:11:37;;;;;;;10.95;7.95;;;;;;;;;;4875910;29;20032;-77
2023/03/04 09:14:03;;;;;;;15.73;8.95;;;;;;;;;;4893660;29;20052;-77
2023/03/04 09:16:29;;;;;;;14.07;9.02;;;;;;;;;;4889664;29;20051;-76
2023/03/04 09:18:55;;;;;;;15.35;9.63;;;;;;;;;;4872378;29;20028;-76
2023/03/04 09:21:21;;;;;;;13.07;8.75;;;;;;;;;;4890202;29;20032;-76
2023/03/04 09:23:47;;;;;;;14.45;10.43;;;;;;;;;;4886570;29;20036;-77
2023/03/04 09:26:24;;;;;;;11.82;8.40;;;;;;;;;;4891042;29;20033;-77
2023/03/04 09:28:51;;;;;;;12.80;8.60;;;;;;;;;;4893296;29;20056;-77
2023/03/04 09:31:17;;;;;;;12.32;9.70;;;;;;;;;;4896411;29;20028;-77
2023/03/04 09:33:44;;;;;;;12.90;8.57;;;;;;;;;;4885925;29;20111;-78
2023/03/04 09:36:11;;;;;;;15.32;9.82;;;;;;;;;;4889408;29;20041;-78
2023/03/04 09:38:37;;;;;;;12.40;9.52;;;;;;;;;;4891492;29;20028;-77
2023/03/04 09:41:08;;;;;;;12.45;8.80;;;;;;;;;;4885570;29;20043;-78
2023/03/04 09:43:34;;;;;;;19.80;12.18;;;;;;;;;;4872212;29;20017;-77
2023/03/04 09:46:07;;;;;;;14.75;9.60;;;;;;;;;;4878463;29;20120;-76
2023/03/04 09:48:53;;;;;;;14.13;9.57;;;;;;;;;;4885415;29;20071;-77
2023/03/04 09:51:19;;;;;;;14.60;10.57;;;;;;;;;;4893975;29;20063;-79
2023/03/04 09:53:45;;;;;;;14.93;9.88;;;;;;;;;;4896337;29;20028;-76
2023/03/04 09:56:12;;;;;;;12.50;9.05;;;;;;;;;;4892613;29;20074;-76
2023/03/04 09:58:58;;;;;;;12.27;9.60;;;;;;;;;;4906765;29;20025;-77
2023/03/04 10:01:25;;;;;;;14.77;9.77;;;;;;;;;;4897300;29;20511;-78
2023/03/04 10:03:57;;;;;;;14.05;10.05;;;;;;;;;;4896461;29;20032;-77
2023/03/04 10:06:24;;;;;;;14.02;10.02;;;;;;;;;;4890220;29;20113;-77
2023/03/04 10:08:59;;;;;;;13.60;9.65;;;;;;;;;;4891476;29;20168;-76
2023/03/04 10:11:46;;;;;;;12.40;10.15;;;;;;;;;;4893323;29;20059;-78
2023/03/04 10:14:21;;;;;;;14.10;9.48;;;;;;;;;;4894672;29;20119;-76
2023/03/04 10:16:57;;;;;;;14.80;9.88;;;;;;;;;;4897576;29;20075;-79
2023/03/04 10:19:38;;;;;;;14.20;9.48;;;;;;;;;;4894635;29;20032;-77
2023/03/04 10:22:25;;;;;;;11.43;8.77;;;;;;;;;;4889224;29;20025;-77
2023/03/04 10:24:55;;;;;;;15.98;10.52;;;;;;;;;;4886376;29;20103;-77
2023/03/04 10:27:22;;;;;;;14.93;9.60;;;;;;;;;;4889105;29;20104;-77
2023/03/04 10:29:48;;;;;;;13.60;10.10;;;;;;;;;;4895025;29;20108;-74
2023/03/04 10:32:17;;;;;;;13.60;10.32;;;;;;;;;;4894165;29;20268;-75
2023/03/04 10:34:43;;;;;;;16.25;9.13;;;;;;;;;;4898080;29;20096;-77
2023/03/04 10:37:10;;;;;;;11.07;8.25;;;;;;;;;;4890815;29;20041;-78
2023/03/04 10:39:44;;;;;;;14.77;9.48;;;;;;;;;;4890459;29;20029;-77
2023/03/04 10:42:13;;;;;;;16.52;10.07;;;;;;;;;;4885572;29;20044;-79
2023/03/04 10:44:41;;;;;;;14.55;10.27;;;;;;;;;;4887836;29;20112;-77
2023/03/04 10:47:10;;;;;;;13.45;8.82;;;;;;;;;;4900165;29;20037;-78
2023/03/04 10:49:49;;;;;;;13.30;8.80;;;;;;;;;;4888296;29;20029;-78
2023/03/04 10:52:19;;;;;;;16.83;11.48;;;;;;;;;;4894651;29;20063;-77
2023/03/04 10:54:50;;;;;;;15.07;9.80;;;;;;;;;;4897171;29;20699;-78
2023/03/04 10:57:19;;;;;;;16.30;10.02;;;;;;;;;;4895944;29;20024;-78
2023/03/04 11:00:01;;;;;;;15.68;10.23;;;;;;;;;;4884802;29;20029;-78
2023/03/04 11:02:27;;;;;;;10.25;8.85;;;;;;;;;;4894190;29;20357;-78
2023/03/04 11:04:55;;;;;;;16.67;9.60;;;;;;;;;;4893362;29;20436;-79
2023/03/04 11:07:22;;;;;;;13.23;9.25;;;;;;;;;;4895318;29;20554;-77
2023/03/04 11:09:48;;;;;;;13.00;8.65;;;;;;;;;;4890260;29;20079;-78
2023/03/04 11:12:16;;;;;;;13.80;8.63;;;;;;;;;;4886640;29;20487;-78
2023/03/04 11:14:45;;;;;;;18.50;10.13;;;;;;;;;;4894195;29;20047;-78
2023/03/04 11:17:17;;;;;;;15.13;10.45;;;;;;;;;;4884385;29;20033;-79
2023/03/04 11:19:45;;;;;;;18.52;9.00;;;;;;;;;;4895710;29;20036;-76
2023/03/04 11:22:15;;;;;;;12.80;8.15;;;;;;;;;;4896022;29;20420;-76
2023/03/04 11:24:42;;;;;;;10.57;8.10;;;;;;;;;;4895199;29;20391;-77
2023/03/04 11:27:11;;;;;;;12.13;8.48;;;;;;;;;;4894409;29;20391;-78
2023/03/04 11:29:42;;;;;;;11.80;9.05;;;;;;;;;;4897991;29;20060;-78
2023/03/04 11:32:13;;;;;;;11.77;8.10;;;;;;;;;;4892981;29;20084;-77
2023/03/04 11:34:39;;;;;;;10.65;7.82;;;;;;;;;;4892753;29;20028;-77
2023/03/04 11:37:14;;;;;;;12.38;7.93;;;;;;;;;;4893792;29;20032;-77
2023/03/04 11:39:43;;;;;;;13.45;9.02;;;;;;;;;;4894985;29;20027;-77
2023/03/04 11:42:33;;;;;;;11.18;7.82;;;;;;;;;;4886490;29;20243;-75
2023/03/04 11:44:59;;;;;;;13.32;8.30;;;;;;;;;;4881486;29;20033;-77
2023/03/04 11:47:44;;;;;;;14.15;8.95;;;;;;;;;;4891645;29;20029;-77
2023/03/04 11:50:10;;;;;;;9.57;6.90;;;;;;;;;;4900900;29;20134;-77
2023/03/04 11:52:53;;;;;;;8.93;6.93;;;;;;;;;;4883356;29;20048;-77
2023/03/04 11:55:42;;;;;;;8.65;7.00;;;;;;;;;;4876349;29;20045;-76
2023/03/04 11:58:24;;;;;;;8.75;6.47;;;;;;;;;;4873482;29;20452;-76
2023/03/04 12:00:57;;;;;;;8.88;6.68;;;;;;;;;;4875421;29;20443;-77
2023/03/04 12:03:42;;;;;;;10.85;7.15;;;;;;;;;;4857816;29;20718;-77
2023/03/04 12:06:13;;;;;;;10.07;6.72;;;;;;;;;;4870423;29;20460;-76
2023/03/04 12:08:39;;;;;;;14.07;8.57;;;;;;;;;;4875451;29;20044;-77
2023/03/04 12:11:07;;;;;;;13.10;7.20;;;;;;;;;;4872656;29;20037;-77
2023/03/04 12:13:39;;;;;;;10.00;7.10;;;;;;;;;;4873682;29;20089;-77
2023/03/04 12:16:05;;;;;;;12.43;8.43;;;;;;;;;;4872587;29;20136;-76
2023/03/04 12:18:40;;;;;;;14.25;7.15;;;;;;;;;;4875368;29;20021;-77
2023/03/04 12:21:07;;;;;;;8.77;7.15;;;;;;;;;;4861028;29;20029;-77
2023/03/04 12:23:33;;;;;;;13.15;6.95;;;;;;;;;;4865498;29;20150;-76
2023/03/04 12:25:59;;;;;;;9.43;6.13;;;;;;;;;;4873384;29;20057;-77
2023/03/04 12:28:30;;;;;;;9.88;6.53;;;;;;;;;;4867646;29;20107;-76
2023/03/04 12:31:15;;;;;;;11.88;7.68;;;;;;;;;;4871402;29;20033;-77
2023/03/04 12:34:00;;;;;;;12.30;8.57;;;;;;;;;;4871356;29;20025;-77
2023/03/04 12:36:34;;;;;;;11.15;7.18;;;;;;;;;;4872762;29;20025;-75
2023/03/04 12:39:08;;;;;;;11.98;7.63;;;;;;;;;;4875057;29;20021;-77
2023/03/04 12:41:40;;;;;;;10.25;7.35;;;;;;;;;;4873866;29;20044;-77
2023/03/04 12:44:15;;;;;;;15.30;9.02;;;;;;;;;;4876192;29;20154;-77
2023/03/04 12:46:41;;;;;;;9.52;6.47;;;;;;;;;;4874954;29;20021;-78
2023/03/04 12:49:26;;;;;;;11.95;7.07;;;;;;;;;;4879735;29;20029;-77
2023/03/04 12:52:06;;;;;;;10.52;7.57;;;;;;;;;;4863528;29;20127;-76
2023/03/04 12:54:34;;;;;;;9.75;6.13;;;;;;;;;;4867338;29;20647;-75
2023/03/04 12:57:14;;;;;;;6.72;5.68;;;;;;;;;;4879549;29;20146;-77
2023/03/04 12:59:44;;;;;;;7.82;5.35;;;;;;;;;;4881573;29;20037;-79
2023/03/04 13:02:29;;;;;;;8.50;6.40;;;;;;;;;;4886449;29;20041;-77
2023/03/04 13:05:16;;;;;;;9.82;6.47;;;;;;;;;;4879810;29;20081;-78
2023/03/04 13:08:01;;;;;;;8.38;5.88;;;;;;;;;;4876026;29;20585;-77
2023/03/04 13:10:27;;;;;;;10.57;6.73;;;;;;;;;;4875903;29;20025;-77
2023/03/04 13:12:55;;;;;;;9.05;6.47;;;;;;;;;;4872329;29;20044;-77
2023/03/04 13:15:21;;;;;;;8.88;5.72;;;;;;;;;;4882355;29;20028;-77
2023/03/04 13:17:49;;;;;;;7.50;5.65;;;;;;;;;;4875077;29;20025;-77
2023/03/04 13:20:32;;;;;;;7.40;5.30;;;;;;;;;;4883028;29;20675;-78
2023/03/04 13:23:06;;;;;;;9.30;5.85;;;;;;;;;;4870370;29;20073;-77
2023/03/04 13:25:42;;;;;;;6.70;5.65;;;;;;;;;;4864688;29;20090;-77
2023/03/04 13:28:08;;;;;;;7.63;6.05;;;;;;;;;;4874671;29;20029;-76
2023/03/04 13:30:35;;;;;;;8.27;5.75;;;;;;;;;;4876173;29;20037;-77
2023/03/04 13:33:08;;;;;;;7.93;5.22;;;;;;;;;;4876528;29;20084;-76
2023/03/04 13:35:49;;;;;;;9.25;6.03;;;;;;;;;;4877368;29;20047;-76
2023/03/04 13:38:20;;;;;;;9.27;6.10;;;;;;;;;;4882660;29;20032;-76
2023/03/04 13:41:05;;;;;;;8.10;5.75;;;;;;;;;;4893237;29;20049;-77
2023/03/04 13:43:39;;;;;;;11.27;5.90;;;;;;;;;;4878925;29;20037;-78
2023/03/04 13:46:22;;;;;;;8.23;6.07;;;;;;;;;;4873461;29;20045;-76
2023/03/04 13:48:51;;;;;;;13.85;8.90;;;;;;;;;;4871129;29;20017;-76
2023/03/04 13:51:33;;;;;;;11.65;5.95;;;;;;;;;;4876628;29;20045;-76
2023/03/04 13:53:59;;;;;;;10.20;5.72;;;;;;;;;;4874376;29;20026;-76
2023/03/04 13:56:31;;;;;;;9.95;6.47;;;;;;;;;;4880016;29;20555;-76
2023/03/04 13:59:06;;;;;;;10.25;6.25;;;;;;;;;;4875319;29;20025;-76
2023/03/04 14:01:38;;;;;;;8.57;5.47;;;;;;;;;;4870819;29;20036;-78
2023/03/04 14:04:17;;;;;;;6.10;5.38;;;;;;;;;;4886261;29;20033;-76
2023/03/04 14:06:44;;;;;;;8.50;5.45;;;;;;;;;;4882572;29;20044;-76
2023/03/04 14:09:23;;;;;;;9.63;5.88;;;;;;;;;;4878189;29;20523;-75
2023/03/04 14:11:50;;;;;;;7.22;6.53;;;;;;;;;;4875934;29;20562;-76
2023/03/04 14:14:20;;;;;;;8.48;5.90;;;;;;;;;;4877158;29;20037;-76
2023/03/04 14:16:53;;;;;;;8.95;5.93;;;;;;;;;;4876589;29;20032;-76
2023/03/04 14:19:23;;;;;;;14.73;7.95;;;;;;;;;;4874455;29;20029;-76
2023/03/04 14:21:50;;;;;;;7.85;5.97;;;;;;;;;;4877821;29;20026;-77
2023/03/04 14:24:18;;;;;;;11.02;5.75;;;;;;;;;;4874360;29;20130;-76
2023/03/04 14:26:44;;;;;;;10.30;5.88;;;;;;;;;;4877538;29;20025;-76
2023/03/04 14:29:24;;;;;;;7.90;6.82;;;;;;;;;;4862411;29;20155;-76
2023/03/04 14:31:51;;;;;;;10.60;5.43;;;;;;;;;;4876684;29;20107;-76
2023/03/04 14:34:23;;;;;;;7.30;5.68;;;;;;;;;;4878039;29;20037;-78
2023/03/04 14:36:49;;;;;;;9.60;5.43;;;;;;;;;;4876898;29;20029;-78
2023/03/04 14:39:17;;;;;;;9.38;5.65;;;;;;;;;;4874894;29;20029;-78
2023/03/04 14:41:44;;;;;;;8.20;5.43;;;;;;;;;;4876106;29;20037;-78
2023/03/04 14:44:40;;;;;;;6.30;5.47;;;;;;;;;;4868023;29;20025;-79
2023/03/04 14:47:09;;;;;;;8.93;5.63;;;;;;;;;;4853364;29;20048;-79